Time;durP1;ratioP1;P1;durP2;ratioP2;P2;SDS_P1;SDS_P2;PMS_P1;PMS_P2;Temp;Humidity;BMP_temperature;BMP_pressure;BME280_temperature;BME280_humidity;BME280_pressure;Samples;Min_cycle;Max_cycle;Signal;HPM_P1;HPM_P2
2023/04/15 00:00:29;;;;;;;5.97;5.22;;;7.40;99.90;;;;;;6046030;23;20194;-61
2023/04/15 00:02:56;;;;;;;8.77;5.25;;;7.40;99.90;;;;;;6041033;23;20609;-61
2023/04/15 00:05:24;;;;;;;6.00;4.93;;;7.20;99.90;;;;;;6039324;23;20200;-61
2023/04/15 00:07:52;;;;;;;5.65;4.90;;;7.10;99.90;;;;;;6044800;23;20210;-61
2023/04/15 00:10:19;;;;;;;6.13;5.53;;;7.10;99.90;;;;;;6038349;23;20633;-61
2023/04/15 00:12:46;;;;;;;7.13;5.35;;;7.10;99.90;;;;;;6046394;23;20690;-61
2023/04/15 00:15:14;;;;;;;6.13;4.85;;;7.20;99.90;;;;;;6041475;23;20185;-61
2023/04/15 00:17:41;;;;;;;6.20;5.63;;;7.20;99.90;;;;;;6043294;23;20197;-61
2023/04/15 00:20:09;;;;;;;8.02;4.95;;;7.20;99.90;;;;;;6042135;23;20220;-61
2023/04/15 00:22:38;;;;;;;6.05;5.18;;;7.20;99.90;;;;;;6041807;23;20181;-61
2023/04/15 00:25:05;;;;;;;6.65;5.40;;;7.10;99.90;;;;;;6047062;23;20347;-61
2023/04/15 00:27:33;;;;;;;6.05;5.13;;;7.00;99.90;;;;;;6045101;23;20232;-61
2023/04/15 00:30:00;;;;;;;6.38;4.90;;;6.50;99.90;;;;;;6043139;23;20211;-61
2023/04/15 00:32:28;;;;;;;7.35;6.40;;;6.90;99.90;;;;;;6042930;23;20189;-61
2023/04/15 00:34:55;;;;;;;7.00;5.47;;;6.80;99.90;;;;;;6042159;23;20192;-61
2023/04/15 00:37:22;;;;;;;7.95;5.63;;;6.70;99.90;;;;;;6041212;23;20545;-61
2023/04/15 00:39:50;;;;;;;9.13;6.05;;;6.60;99.90;;;;;;6041524;23;20247;-61
2023/04/15 00:42:20;;;;;;;5.68;4.93;;;6.60;99.90;;;;;;6043831;23;20591;-61
2023/04/15 00:44:47;;;;;;;6.80;5.50;;;6.50;99.90;;;;;;6048126;23;20185;-61
2023/04/15 00:47:16;;;;;;;6.00;5.40;;;6.50;99.90;;;;;;6041637;23;20709;-61
2023/04/15 00:49:43;;;;;;;6.97;5.40;;;6.50;99.90;;;;;;6045510;23;20219;-61
2023/04/15 00:52:10;;;;;;;5.95;5.32;;;6.80;99.90;;;;;;6042751;23;21420;-61
2023/04/15 00:54:37;;;;;;;7.20;5.60;;;6.50;99.90;;;;;;6045649;23;20850;-67
2023/04/15 00:57:07;;;;;;;6.10;5.50;;;6.50;99.90;;;;;;6049200;23;20541;-67
2023/04/15 00:59:35;;;;;;;7.25;5.28;;;6.50;99.90;;;;;;6030303;23;20292;-67
2023/04/15 01:02:02;;;;;;;9.10;5.70;;;6.40;99.90;;;;;;6022582;23;20185;-67
2023/04/15 01:04:30;;;;;;;4.95;4.53;;;6.40;99.90;;;;;;6024162;23;20186;-67
2023/04/15 01:06:57;;;;;;;6.55;4.90;;;6.40;99.90;;;;;;6019234;23;20706;-67
2023/04/15 01:09:25;;;;;;;6.65;5.18;;;6.40;99.90;;;;;;6022900;23;20525;-67
2023/04/15 01:11:52;;;;;;;5.93;5.30;;;6.40;99.90;;;;;;6019576;23;20220;-67
2023/04/15 01:14:21;;;;;;;6.38;5.43;;;6.50;99.90;;;;;;6016436;23;20197;-66
2023/04/15 01:16:48;;;;;;;8.05;5.60;;;6.50;99.90;;;;;;6014606;23;20200;-67
2023/04/15 01:19:16;;;;;;;6.97;5.55;;;6.40;99.90;;;;;;6021844;23;20688;-67
2023/04/15 01:21:43;;;;;;;7.68;5.70;;;6.40;99.90;;;;;;6026773;23;20185;-67
2023/04/15 01:24:11;;;;;;;6.38;5.65;;;6.40;99.90;;;;;;6019351;23;20185;-67
2023/04/15 01:26:40;;;;;;;6.47;5.57;;;6.20;99.90;;;;;;6014897;23;20196;-67
2023/04/15 01:29:07;;;;;;;6.00;5.40;;;6.20;99.90;;;;;;6018920;23;20223;-68
2023/04/15 01:31:34;;;;;;;8.32;5.60;;;6.20;99.90;;;;;;6023921;23;20197;-66
2023/04/15 01:34:01;;;;;;;6.30;5.70;;;6.20;99.90;;;;;;6020451;23;20202;-67
2023/04/15 01:36:28;;;;;;;8.57;5.90;;;6.10;99.90;;;;;;6013271;23;20454;-67
2023/04/15 01:38:56;;;;;;;7.95;5.00;;;6.10;99.90;;;;;;6018054;23;20289;-67
2023/04/15 01:41:25;;;;;;;7.30;5.47;;;6.00;99.90;;;;;;6019858;23;20216;-67
2023/04/15 01:43:54;;;;;;;5.82;5.22;;;6.00;99.90;;;;;;6007146;23;21338;-67
2023/04/15 01:46:22;;;;;;;8.10;5.57;;;5.90;99.90;;;;;;6015032;23;20653;-67
2023/04/15 01:48:49;;;;;;;6.28;5.50;;;5.90;99.90;;;;;;6020308;23;20213;-67
2023/04/15 01:51:16;;;;;;;6.57;5.40;;;5.80;99.90;;;;;;6018276;23;20185;-66
2023/04/15 01:53:44;;;;;;;6.88;5.72;;;5.70;99.90;;;;;;6022067;23;20263;-67
2023/04/15 01:56:10;;;;;;;7.32;5.85;;;5.60;99.90;;;;;;6009768;23;20251;-68
2023/04/15 01:58:39;;;;;;;7.38;5.50;;;5.50;99.90;;;;;;6012036;23;20210;-67
2023/04/15 02:01:09;;;;;;;9.65;6.43;;;5.60;99.90;;;;;;6010761;23;20608;-67
2023/04/15 02:03:37;;;;;;;7.60;6.40;;;5.50;99.90;;;;;;6017182;23;20634;-66
2023/04/15 02:06:05;;;;;;;8.48;5.93;;;5.50;99.90;;;;;;6016048;23;20194;-67
2023/04/15 02:08:32;;;;;;;8.18;5.55;;;5.50;99.90;;;;;;6010039;23;20729;-68
2023/04/15 02:11:00;;;;;;;7.05;5.70;;;5.40;99.90;;;;;;6023602;23;20186;-67
2023/04/15 02:13:27;;;;;;;7.88;6.03;;;5.30;99.90;;;;;;6037936;23;20634;-67
2023/04/15 02:15:55;;;;;;;6.55;5.78;;;5.20;99.90;;;;;;6033392;23;20512;-67
2023/04/15 02:18:23;;;;;;;7.40;5.85;;;5.10;99.90;;;;;;6034307;23;20213;-67
2023/04/15 02:20:51;;;;;;;9.45;6.57;;;5.10;99.90;;;;;;6015730;23;20188;-67
2023/04/15 02:23:19;;;;;;;7.18;6.43;;;5.10;99.90;;;;;;6012368;23;20193;-68
2023/04/15 02:25:46;;;;;;;9.65;6.30;;;5.10;99.90;;;;;;6014734;23;20234;-68
2023/04/15 02:28:13;;;;;;;10.18;6.82;;;5.10;99.90;;;;;;6030021;23;20201;-67
2023/04/15 02:30:40;;;;;;;7.45;6.75;;;5.20;99.90;;;;;;6027055;23;20227;-67
2023/04/15 02:33:08;;;;;;;10.25;6.75;;;5.20;99.90;;;;;;6019198;23;20190;-67
2023/04/15 02:35:38;;;;;;;9.15;6.95;;;5.20;99.90;;;;;;6019577;23;20718;-66
2023/04/15 02:38:05;;;;;;;7.68;6.65;;;5.20;99.90;;;;;;6017579;23;20233;-66
2023/04/15 02:40:32;;;;;;;9.88;6.68;;;5.20;99.90;;;;;;6019550;23;20196;-66
2023/04/15 02:43:00;;;;;;;7.45;6.30;;;5.20;99.90;;;;;;6017495;23;21609;-66
2023/04/15 02:45:27;;;;;;;7.75;6.05;;;5.20;99.90;;;;;;6013934;23;20201;-66
2023/04/15 02:47:54;;;;;;;11.85;7.90;;;5.20;99.90;;;;;;6017901;23;20224;-66
2023/04/15 02:50:22;;;;;;;7.63;6.78;;;5.20;99.90;;;;;;6018304;23;21582;-66
2023/04/15 02:52:51;;;;;;;9.40;6.70;;;5.40;99.90;;;;;;6019902;23;20216;-66
2023/04/15 02:55:18;;;;;;;7.93;6.43;;;5.10;99.90;;;;;;5977471;23;1048075;-66
2023/04/15 02:57:45;;;;;;;9.02;6.72;;;5.10;99.90;;;;;;6049051;23;20240;-66
2023/04/15 03:00:13;;;;;;;9.77;7.68;;;5.10;99.90;;;;;;6031886;23;20182;-66
2023/04/15 03:02:40;;;;;;;6.68;6.05;;;5.10;99.90;;;;;;6013705;23;20221;-66
2023/04/15 03:05:12;;;;;;;6.40;5.88;;;5.10;99.90;;;;;;6000699;23;20560;-67
2023/04/15 03:07:39;;;;;;;9.23;6.60;;;5.10;99.90;;;;;;6012307;23;20236;-67
2023/04/15 03:10:09;;;;;;;9.35;6.85;;;5.20;99.90;;;;;;6022459;23;20284;-66
2023/04/15 03:12:36;;;;;;;7.30;6.45;;;5.20;99.90;;;;;;6019386;23;20698;-66
2023/04/15 03:15:03;;;;;;;9.45;6.80;;;5.20;99.90;;;;;;6017060;23;20186;-66
2023/04/15 03:17:30;;;;;;;8.73;7.30;;;5.10;99.90;;;;;;6018994;23;20642;-67
2023/04/15 03:19:57;;;;;;;8.07;6.40;;;5.10;99.90;;;;;;6026015;23;20188;-66
2023/04/15 03:22:25;;;;;;;9.10;6.35;;;4.90;99.90;;;;;;6030567;23;20192;-66
2023/04/15 03:24:52;;;;;;;8.15;7.05;;;4.80;99.90;;;;;;6022135;23;20189;-67
2023/04/15 03:27:20;;;;;;;7.80;6.15;;;4.80;99.90;;;;;;6024085;23;20708;-66
2023/04/15 03:29:48;;;;;;;8.68;6.50;;;4.70;99.90;;;;;;6005073;23;20309;-67
2023/04/15 03:32:15;;;;;;;7.93;7.07;;;4.70;99.90;;;;;;6010126;23;20273;-66
2023/04/15 03:34:42;;;;;;;9.00;6.15;;;4.70;99.90;;;;;;6021195;23;20193;-66
2023/04/15 03:37:09;;;;;;;7.25;6.38;;;4.60;99.90;;;;;;6009939;23;20272;-67
2023/04/15 03:39:36;;;;;;;6.95;6.25;;;4.60;99.90;;;;;;6012068;23;20703;-66
2023/04/15 03:42:03;;;;;;;7.25;6.30;;;4.50;99.90;;;;;;6011330;23;20222;-66
2023/04/15 03:44:32;;;;;;;9.82;6.47;;;4.50;99.90;;;;;;6008503;23;20192;-66
2023/04/15 03:46:59;;;;;;;8.93;6.22;;;4.50;99.90;;;;;;6017642;23;20194;-66
2023/04/15 03:49:26;;;;;;;8.27;7.40;;;4.50;99.90;;;;;;6016138;23;20607;-66
2023/04/15 03:51:53;;;;;;;7.93;6.22;;;4.40;99.90;;;;;;6008743;23;20216;-67
2023/04/15 03:54:20;;;;;;;10.27;6.90;;;4.40;99.90;;;;;;6024007;23;20669;-67
2023/04/15 03:56:47;;;;;;;7.95;7.07;;;4.40;99.90;;;;;;6041299;23;20199;-67
2023/04/15 03:59:14;;;;;;;10.88;7.45;;;4.30;99.90;;;;;;6035781;23;20209;-67
2023/04/15 04:01:42;;;;;;;8.38;6.95;;;4.30;99.90;;;;;;6030503;23;20671;-67
2023/04/15 04:04:09;;;;;;;7.25;6.22;;;4.30;99.90;;;;;;6022261;23;20186;-67
2023/04/15 04:06:36;;;;;;;8.30;7.45;;;4.30;99.90;;;;;;6041321;23;20554;-67
2023/04/15 04:09:03;;;;;;;10.52;7.55;;;4.20;99.90;;;;;;6031116;23;20214;-67
2023/04/15 04:11:31;;;;;;;8.85;6.70;;;4.10;99.90;;;;;;6031579;23;20676;-67
2023/04/15 04:13:59;;;;;;;9.90;6.82;;;4.00;99.90;;;;;;6029783;23;20646;-67
2023/04/15 04:16:26;;;;;;;10.77;6.95;;;4.00;99.90;;;;;;6027289;23;20190;-67
2023/04/15 04:18:54;;;;;;;11.52;7.05;;;3.90;99.90;;;;;;6044816;23;20206;-66
2023/04/15 04:21:22;;;;;;;8.10;7.30;;;3.90;99.90;;;;;;6008409;23;20190;-67
2023/04/15 04:23:50;;;;;;;10.50;7.35;;;3.80;99.90;;;;;;6021616;23;20193;-67
2023/04/15 04:26:18;;;;;;;10.38;8.23;;;3.80;99.90;;;;;;6020025;23;20192;-68
2023/04/15 04:28:46;;;;;;;9.50;6.47;;;3.80;99.90;;;;;;6022442;23;20209;-67
2023/04/15 04:31:13;;;;;;;8.45;6.68;;;3.80;99.90;;;;;;6013798;23;20182;-67
2023/04/15 04:33:41;;;;;;;7.68;6.88;;;3.80;99.90;;;;;;6023542;23;20680;-67
2023/04/15 04:36:10;;;;;;;8.68;7.28;;;3.80;99.90;;;;;;6021165;23;20220;-67
2023/04/15 04:38:37;;;;;;;10.90;7.80;;;3.90;99.90;;;;;;6030799;23;20300;-67
2023/04/15 04:41:05;;;;;;;8.73;6.85;;;3.90;99.90;;;;;;6030616;23;20280;-67
2023/04/15 04:43:33;;;;;;;8.88;7.40;;;3.90;99.90;;;;;;6031458;23;20688;-67
2023/04/15 04:46:00;;;;;;;9.30;7.30;;;3.90;99.90;;;;;;6015393;23;20197;-67
2023/04/15 04:48:28;;;;;;;9.35;7.28;;;3.90;99.90;;;;;;6037640;23;20235;-67
2023/04/15 04:50:56;;;;;;;8.48;7.10;;;3.90;99.90;;;;;;6012834;23;20299;-67
2023/04/15 04:53:25;;;;;;;8.10;7.35;;;3.90;99.90;;;;;;6017996;23;20543;-67
2023/04/15 04:55:53;;;;;;;8.05;7.00;;;3.90;99.90;;;;;;6018485;23;20247;-67
2023/04/15 04:58:20;;;;;;;8.32;7.25;;;3.80;99.90;;;;;;6024565;23;20213;-67
2023/04/15 05:00:48;;;;;;;7.72;6.95;;;3.80;99.90;;;;;;6020207;23;20193;-67
2023/04/15 05:03:15;;;;;;;9.68;7.65;;;3.80;99.90;;;;;;6021970;23;20193;-67
2023/04/15 05:05:43;;;;;;;7.75;6.95;;;3.70;99.90;;;;;;6015659;23;20189;-67
2023/04/15 05:08:10;;;;;;;7.85;7.05;;;3.70;99.90;;;;;;6023817;23;20634;-67
2023/04/15 05:10:38;;;;;;;8.02;6.68;;;3.70;99.90;;;;;;6012919;23;20236;-67
2023/04/15 05:13:05;;;;;;;9.95;7.20;;;3.70;99.90;;;;;;6016377;23;20239;-67
2023/04/15 05:15:33;;;;;;;8.38;7.57;;;3.70;99.90;;;;;;6017494;23;20189;-66
2023/04/15 05:18:00;;;;;;;9.38;8.48;;;3.70;99.90;;;;;;6021089;23;20214;-67
2023/04/15 05:20:28;;;;;;;7.45;6.75;;;3.80;99.90;;;;;;6016218;23;20264;-66
2023/04/15 05:22:55;;;;;;;11.43;8.30;;;3.80;99.90;;;;;;6018785;23;21149;-66
2023/04/15 05:25:21;;;;;;;8.25;7.22;;;3.90;99.90;;;;;;6020127;23;20236;-66
2023/04/15 05:27:50;;;;;;;10.38;8.18;;;3.90;99.90;;;;;;6021399;23;20261;-66
2023/04/15 05:30:17;;;;;;;10.10;7.85;;;4.00;99.90;;;;;;6022034;23;20573;-66
2023/04/15 05:32:44;;;;;;;11.57;7.60;;;4.00;99.90;;;;;;6013379;23;20297;-66
2023/04/15 05:35:11;;;;;;;8.77;7.90;;;4.00;99.90;;;;;;6010696;23;20280;-67
2023/04/15 05:37:38;;;;;;;11.15;7.70;;;4.00;99.90;;;;;;6015769;23;20604;-66
2023/04/15 05:40:06;;;;;;;10.30;8.25;;;4.00;99.90;;;;;;6022421;23;20207;-66
2023/04/15 05:42:34;;;;;;;11.13;7.97;;;4.00;99.90;;;;;;6038892;23;20216;-66
2023/04/15 05:45:04;;;;;;;9.05;7.30;;;4.10;99.90;;;;;;6019680;23;20526;-66
2023/04/15 05:47:31;;;;;;;10.27;8.43;;;4.10;99.90;;;;;;6018949;23;20201;-67
2023/04/15 05:49:58;;;;;;;12.07;8.30;;;4.20;99.90;;;;;;6020800;23;20221;-66
2023/04/15 05:52:26;;;;;;;12.10;9.32;;;4.20;99.90;;;;;;6033363;23;20243;-66
2023/04/15 05:54:53;;;;;;;10.55;8.60;;;4.30;99.90;;;;;;6021886;23;20200;-66
2023/04/15 05:57:20;;;;;;;11.13;7.38;;;4.30;99.90;;;;;;6023731;23;20238;-65
2023/04/15 05:59:47;;;;;;;8.18;7.30;;;4.30;99.90;;;;;;6016497;23;20277;-66
2023/04/15 06:02:15;;;;;;;9.82;7.30;;;4.30;99.90;;;;;;6037779;23;20537;-66
2023/04/15 06:04:42;;;;;;;8.07;7.20;;;4.50;99.90;;;;;;6023393;23;20186;-66
2023/04/15 06:07:09;;;;;;;9.90;7.93;;;4.50;99.90;;;;;;6012480;23;20697;-66
2023/04/15 06:09:36;;;;;;;8.70;7.55;;;4.60;99.90;;;;;;6029802;23;20224;-66
2023/04/15 06:12:05;;;;;;;10.13;7.78;;;4.70;99.90;;;;;;6028633;23;20205;-66
2023/04/15 06:14:32;;;;;;;8.10;6.70;;;4.80;99.90;;;;;;6044876;23;20191;-66
2023/04/15 06:16:59;;;;;;;7.80;7.00;;;4.90;99.90;;;;;;6023827;23;20244;-66
2023/04/15 06:19:28;;;;;;;9.95;6.82;;;4.80;99.90;;;;;;6032097;23;20188;-66
2023/04/15 06:21:55;;;;;;;8.52;7.45;;;5.10;99.90;;;;;;6053936;23;20199;-67
2023/04/15 06:24:22;;;;;;;7.68;6.88;;;5.10;99.90;;;;;;6026395;23;20196;-67
2023/04/15 06:26:49;;;;;;;7.88;6.35;;;5.30;99.90;;;;;;6046670;23;20199;-67
2023/04/15 06:29:16;;;;;;;8.88;7.20;;;5.50;99.90;;;;;;6036466;23;20205;-67
2023/04/15 06:31:43;;;;;;;7.43;6.22;;;5.70;99.90;;;;;;6032514;23;20304;-66
2023/04/15 06:34:10;;;;;;;6.90;6.20;;;6.00;99.90;;;;;;6039819;23;20239;-66
2023/04/15 06:36:38;;;;;;;7.72;6.47;;;6.30;99.90;;;;;;6040259;23;20197;-66
2023/04/15 06:39:05;;;;;;;9.27;6.80;;;6.50;99.90;;;;;;6020093;23;20276;-66
2023/04/15 06:41:33;;;;;;;7.10;6.40;;;6.50;99.90;;;;;;6026658;23;20593;-66
2023/04/15 06:44:00;;;;;;;11.50;6.30;;;6.50;99.90;;;;;;6004723;23;20266;-66
2023/04/15 06:46:27;;;;;;;6.32;5.72;;;6.60;99.90;;;;;;6003733;23;20270;-68
2023/04/15 06:48:54;;;;;;;9.10;6.43;;;6.80;99.90;;;;;;6021128;23;21776;-67
2023/04/15 06:51:22;;;;;;;7.10;6.15;;;7.00;99.90;;;;;;6021017;23;20310;-66
2023/04/15 06:53:51;;;;;;;7.50;6.13;;;7.40;99.90;;;;;;6021895;23;20186;-66
2023/04/15 06:56:18;;;;;;;6.90;6.20;;;7.60;99.90;;;;;;6027188;23;20306;-66
2023/04/15 06:58:46;;;;;;;6.75;6.15;;;7.70;99.90;;;;;;6014214;23;20244;-65
2023/04/15 07:01:14;;;;;;;7.10;5.25;;;7.90;99.90;;;;;;6027569;23;20706;-66
2023/04/15 07:03:41;;;;;;;6.68;5.97;;;8.10;99.90;;;;;;6021593;23;20189;-66
2023/04/15 07:06:09;;;;;;;6.35;5.60;;;8.40;99.90;;;;;;6029089;23;20200;-66
2023/04/15 07:08:36;;;;;;;6.22;5.63;;;8.60;99.90;;;;;;6022808;23;20563;-66
2023/04/15 07:11:05;;;;;;;6.45;5.35;;;8.70;99.90;;;;;;6023340;23;20575;-66
2023/04/15 07:13:32;;;;;;;6.55;5.30;;;8.80;99.90;;;;;;6025915;23;20269;-66
2023/04/15 07:15:59;;;;;;;6.68;5.78;;;8.70;99.90;;;;;;6008068;23;20531;-66
2023/04/15 07:18:26;;;;;;;6.90;4.97;;;8.70;99.90;;;;;;6027931;23;20205;-67
2023/04/15 07:20:53;;;;;;;5.63;5.13;;;8.70;99.90;;;;;;6033243;23;20715;-71
2023/04/15 07:23:20;;;;;;;8.07;6.03;;;8.70;99.90;;;;;;6030061;23;20323;-67
2023/04/15 07:25:47;;;;;;;6.95;5.60;;;8.60;99.90;;;;;;6028776;23;20275;-66
2023/04/15 07:28:15;;;;;;;6.28;5.60;;;8.60;99.90;;;;;;6033526;23;20223;-66
2023/04/15 07:30:42;;;;;;;5.72;5.10;;;8.60;99.90;;;;;;6037920;23;20227;-66
2023/04/15 07:33:10;;;;;;;6.40;5.63;;;8.60;99.90;;;;;;6049924;23;20535;-66
2023/04/15 07:35:36;;;;;;;7.57;6.88;;;8.70;99.90;;;;;;6022538;23;20191;-66
2023/04/15 07:38:03;;;;;;;9.23;6.65;;;8.80;99.90;;;;;;6032639;23;20652;-66
2023/04/15 07:40:31;;;;;;;6.88;5.93;;;9.20;99.90;;;;;;6034572;23;20189;-66
2023/04/15 07:42:58;;;;;;;7.13;6.07;;;9.60;99.90;;;;;;6027174;23;20646;-67
2023/04/15 07:45:26;;;;;;;7.28;4.70;;;10.20;99.90;;;;;;6031346;23;20633;-66
2023/04/15 07:47:54;;;;;;;5.00;4.50;;;10.80;99.90;;;;;;6027869;23;20210;-67
2023/04/15 07:50:22;;;;;;;6.40;4.55;;;11.20;99.90;;;;;;6035471;23;20234;-66
2023/04/15 07:52:50;;;;;;;5.13;4.63;;;11.70;99.90;;;;;;6052332;23;20189;-66
2023/04/15 07:55:18;;;;;;;6.30;4.87;;;12.00;99.90;;;;;;6014492;23;20297;-67
2023/04/15 07:57:46;;;;;;;6.43;5.47;;;12.40;99.90;;;;;;6018233;23;20461;-66
2023/04/15 08:00:15;;;;;;;6.03;5.43;;;12.50;99.90;;;;;;6028285;23;20441;-66
2023/04/15 08:02:45;;;;;;;5.50;5.00;;;12.80;99.90;;;;;;6038186;23;20440;-67
2023/04/15 08:05:14;;;;;;;7.47;5.30;;;13.10;99.90;;;;;;6030935;23;21242;-67
2023/04/15 08:07:41;;;;;;;5.63;5.13;;;13.30;99.90;;;;;;6035713;23;20506;-67
2023/04/15 08:10:09;;;;;;;6.47;5.47;;;13.70;99.90;;;;;;6029244;23;20929;-75
2023/04/15 08:12:36;;;;;;;7.77;5.27;;;14.00;99.90;;;;;;6037895;23;20436;-68
2023/04/15 08:15:04;;;;;;;5.67;4.73;;;14.40;99.90;;;;;;6046456;23;20943;-68
2023/04/15 08:17:31;;;;;;;5.63;4.90;;;14.90;99.90;;;;;;6049557;23;20464;-67
2023/04/15 08:19:59;;;;;;;6.80;5.17;;;15.40;99.90;;;;;;6029830;23;20538;-67
2023/04/15 08:22:26;;;;;;;5.40;4.83;;;15.80;99.90;;;;;;6018500;23;20439;-67
2023/04/15 08:24:54;;;;;;;5.23;4.50;;;16.10;99.90;;;;;;6033314;23;20440;-67
2023/04/15 08:27:21;;;;;;;4.70;4.30;;;16.40;99.90;;;;;;6037092;23;20452;-67
2023/04/15 08:29:47;;;;;;;6.27;5.37;;;16.70;99.90;;;;;;6046580;23;20930;-67
2023/04/15 08:32:15;;;;;;;5.43;3.97;;;16.90;99.60;;;;;;6031415;23;20475;-66
2023/04/15 08:34:42;;;;;;;5.10;4.30;;;17.10;98.40;;;;;;6029131;23;20510;-67
2023/04/15 08:37:10;;;;;;;4.13;3.73;;;17.30;97.90;;;;;;6034449;23;20537;-67
2023/04/15 08:39:37;;;;;;;3.60;3.30;;;17.40;96.70;;;;;;6042314;23;20448;-67
2023/04/15 08:42:11;;;;;;;4.20;3.57;;;17.60;96.60;;;;;;6048910;23;20428;-68
2023/04/15 08:44:40;;;;;;;5.53;3.70;;;18.00;95.50;;;;;;6028930;23;20478;-68
2023/04/15 08:47:08;;;;;;;4.73;3.50;;;18.40;94.70;;;;;;6024115;23;21834;-68
2023/04/15 08:49:40;;;;;;;4.07;3.33;;;18.70;93.90;;;;;;6035929;23;20440;-67
2023/04/15 08:52:08;;;;;;;5.90;3.70;;;19.00;93.00;;;;;;6039216;23;20465;-67
2023/04/15 08:54:37;;;;;;;3.50;3.20;;;19.10;92.30;;;;;;6027379;23;20479;-68
2023/04/15 08:57:04;;;;;;;3.23;3.03;;;19.20;91.30;;;;;;6029026;23;20456;-67
2023/04/15 08:59:32;;;;;;;3.50;3.10;;;19.30;91.10;;;;;;6040556;23;20475;-67
2023/04/15 09:01:59;;;;;;;4.30;3.80;;;19.50;90.20;;;;;;6021189;23;20485;-67
2023/04/15 09:04:28;;;;;;;3.67;3.30;;;19.60;89.90;;;;;;6014188;23;20482;-67
2023/04/15 09:06:56;;;;;;;3.90;3.60;;;19.80;89.10;;;;;;6015747;23;20476;-67
2023/04/15 09:09:23;;;;;;;3.20;2.83;;;19.90;88.40;;;;;;6026553;23;20787;-67
2023/04/15 09:11:51;;;;;;;4.83;3.67;;;19.80;88.10;;;;;;6033942;23;20507;-67
2023/04/15 09:14:18;;;;;;;4.10;3.67;;;20.00;88.60;;;;;;6032092;23;20504;-68
2023/04/15 09:16:59;;;;;;;4.40;3.83;;;20.00;86.70;;;;;;6026352;23;20502;-68
2023/04/15 09:19:26;;;;;;;4.03;3.73;;;20.00;86.90;;;;;;6035075;23;20428;-68
2023/04/15 09:21:55;;;;;;;4.23;3.83;;;20.00;85.80;;;;;;6042588;23;20443;-68
2023/04/15 09:24:23;;;;;;;3.90;3.27;;;19.80;87.20;;;;;;6027006;23;20460;-68
2023/04/15 09:26:54;;;;;;;3.80;3.40;;;19.80;86.50;;;;;;6045681;23;20859;-68
2023/04/15 09:29:25;;;;;;;4.90;4.07;;;19.80;84.70;;;;;;6041599;23;20438;-67
2023/04/15 09:31:52;;;;;;;4.13;3.73;;;19.60;84.70;;;;;;6023644;23;21046;-67
2023/04/15 09:34:20;;;;;;;3.97;3.67;;;19.30;85.10;;;;;;6011641;23;20429;-67
2023/04/15 09:36:54;;;;;;;4.33;3.90;;;19.10;86.20;;;;;;6033744;23;20486;-67
2023/04/15 09:39:22;;;;;;;4.00;3.10;;;19.00;86.40;;;;;;6036946;23;20916;-67
2023/04/15 09:42:04;;;;;;;5.00;3.70;;;18.70;84.60;;;;;;6050928;23;20531;-68
2023/04/15 09:44:31;;;;;;;3.77;3.47;;;18.50;85.10;;;;;;6016712;23;20450;-68
2023/04/15 09:46:58;;;;;;;4.80;4.30;;;18.40;87.00;;;;;;6048261;23;20502;-68
2023/04/15 09:49:26;;;;;;;4.33;3.43;;;18.30;87.50;;;;;;6029465;23;20990;-68
2023/04/15 09:51:58;;;;;;;5.10;3.53;;;18.20;87.40;;;;;;6007756;23;20472;-68
2023/04/15 09:54:25;;;;;;;4.80;3.97;;;18.20;88.00;;;;;;6022577;23;20448;-68
2023/04/15 09:56:52;;;;;;;4.23;3.60;;;18.20;88.30;;;;;;6005471;23;20806;-68
2023/04/15 09:59:20;;;;;;;4.00;3.60;;;18.20;87.40;;;;;;6021501;23;20472;-68
2023/04/15 10:01:47;;;;;;;3.43;3.13;;;18.10;87.90;;;;;;6016630;23;20440;-68
2023/04/15 10:04:15;;;;;;;4.13;3.23;;;18.20;88.60;;;;;;6025510;23;20440;-68
2023/04/15 10:06:43;;;;;;;3.90;3.50;;;18.30;88.20;;;;;;6021662;23;20471;-67
2023/04/15 10:09:10;;;;;;;4.13;3.70;;;18.50;87.90;;;;;;6019938;23;20448;-68
2023/04/15 10:11:37;;;;;;;5.47;3.53;;;18.60;88.40;;;;;;6020876;23;20473;-68
2023/04/15 10:14:06;;;;;;;4.00;2.80;;;18.90;87.40;;;;;;6022441;23;20513;-68
2023/04/15 10:16:37;;;;;;;3.37;3.07;;;19.20;86.70;;;;;;6019453;23;20433;-68
2023/04/15 10:19:06;;;;;;;4.77;2.80;;;19.60;86.40;;;;;;6027553;23;20521;-72
2023/04/15 10:21:34;;;;;;;3.40;3.07;;;20.00;84.70;;;;;;6024364;23;20796;-67
2023/04/15 10:24:03;;;;;;;5.60;2.87;;;20.50;83.60;;;;;;6022168;23;20444;-67
2023/04/15 10:26:30;;;;;;;3.00;2.70;;;20.90;81.30;;;;;;6031477;23;20417;-67
2023/04/15 10:28:59;;;;;;;2.93;2.60;;;21.20;79.50;;;;;;6016570;23;20444;-68
2023/04/15 10:31:26;;;;;;;4.03;3.00;;;21.30;78.90;;;;;;6010666;23;20984;-67
2023/04/15 10:33:55;;;;;;;4.20;2.80;;;21.50;76.60;;;;;;6028226;23;20451;-67
2023/04/15 10:36:22;;;;;;;3.00;2.80;;;21.20;75.70;;;;;;6026016;23;20518;-67
2023/04/15 10:38:49;;;;;;;3.47;2.80;;;21.10;76.30;;;;;;6025461;23;20516;-68
2023/04/15 10:41:18;;;;;;;2.93;2.73;;;21.20;76.90;;;;;;6023162;23;20469;-67
2023/04/15 10:43:50;;;;;;;3.17;2.50;;;21.30;75.70;;;;;;6026256;23;20438;-68
2023/04/15 10:46:20;;;;;;;3.73;3.10;;;21.50;75.30;;;;;;6038602;23;20444;-68
2023/04/15 10:48:49;;;;;;;4.53;2.73;;;21.70;74.10;;;;;;6033517;23;20440;-70
2023/04/15 10:51:26;;;;;;;3.83;2.90;;;22.00;73.10;;;;;;6017884;23;20460;-68
2023/04/15 10:53:56;;;;;;;3.17;2.60;;;22.20;71.90;;;;;;6031624;23;20552;-68
2023/04/15 10:56:23;;;;;;;3.43;2.43;;;22.30;71.30;;;;;;6030769;23;20440;-68
2023/04/15 10:58:50;;;;;;;4.30;3.10;;;22.70;70.40;;;;;;6029589;23;20448;-75
2023/04/15 11:01:20;;;;;;;3.80;3.00;;;23.00;70.30;;;;;;6025122;23;20501;-77
2023/04/15 11:03:48;;;;;;;3.73;3.40;;;23.30;70.40;;;;;;6017334;23;20445;-67
2023/04/15 11:06:16;;;;;;;3.77;3.20;;;23.80;69.60;;;;;;6022993;23;20448;-67
2023/04/15 11:08:55;;;;;;;3.90;3.60;;;24.10;68.70;;;;;;6027132;23;20828;-67
2023/04/15 11:11:22;;;;;;;4.90;4.50;;;24.40;67.30;;;;;;6012511;23;20488;-72
2023/04/15 11:13:51;;;;;;;4.60;3.80;;;24.20;67.30;;;;;;6022134;23;20444;-74
2023/04/15 11:16:18;;;;;;;4.20;3.90;;;23.80;67.40;;;;;;6014631;23;20436;-74
2023/04/15 11:18:54;;;;;;;4.43;3.70;;;23.00;68.30;;;;;;6032378;23;20849;-74
2023/04/15 11:21:25;;;;;;;5.93;4.47;;;22.50;69.50;;;;;;6032610;23;20440;-78
2023/04/15 11:23:52;;;;;;;4.43;3.77;;;21.80;70.20;;;;;;6026049;23;20436;-75
2023/04/15 11:26:20;;;;;;;4.30;3.90;;;21.70;72.00;;;;;;6019837;23;20445;-77
2023/04/15 11:28:47;;;;;;;4.67;4.13;;;21.30;72.50;;;;;;6029277;23;20491;-79
2023/04/15 11:31:16;;;;;;;4.50;4.10;;;20.90;72.70;;;;;;6030693;23;21112;-77
2023/04/15 11:33:53;;;;;;;5.20;4.30;;;20.40;72.10;;;;;;6019939;23;20474;-75
2023/04/15 11:36:20;;;;;;;4.40;3.80;;;19.90;73.10;;;;;;6018257;23;20446;-68
2023/04/15 11:38:48;;;;;;;4.20;3.80;;;19.60;74.00;;;;;;6018065;23;20438;-80
2023/04/15 11:41:20;;;;;;;4.27;3.67;;;19.40;73.90;;;;;;6003119;23;20477;-77
2023/04/15 11:43:47;;;;;;;3.90;3.60;;;19.20;74.10;;;;;;6014623;23;20540;-76
2023/04/15 11:46:14;;;;;;;5.30;3.97;;;19.30;74.70;;;;;;6022230;23;20461;-76
2023/04/15 11:48:44;;;;;;;3.70;3.13;;;19.10;74.40;;;;;;6039249;23;20451;-75
2023/04/15 11:51:12;;;;;;;3.60;2.73;;;18.90;73.00;;;;;;6029212;23;20445;-75
2023/04/15 11:53:41;;;;;;;3.17;2.70;;;18.70;73.30;;;;;;6032129;23;20522;-75
2023/04/15 11:56:12;;;;;;;2.83;2.30;;;18.50;74.00;;;;;;6019303;23;20520;-76
2023/04/15 11:58:39;;;;;;;3.87;3.00;;;18.40;75.10;;;;;;6034379;23;20441;-76
2023/04/15 12:01:07;;;;;;;5.87;3.10;;;18.30;74.60;;;;;;6024816;23;20472;-75
2023/04/15 12:03:38;;;;;;;3.20;2.90;;;18.30;74.50;;;;;;6023304;23;20548;-75
2023/04/15 12:06:18;;;;;;;3.10;2.63;;;18.30;75.10;;;;;;6021893;23;20447;-76
2023/04/15 12:09:01;;;;;;;4.70;3.40;;;18.20;77.80;;;;;;6025752;23;20441;-66
2023/04/15 12:11:52;;;;;;;4.10;2.83;;;18.20;76.40;;;;;;6021071;23;20452;-72
2023/04/15 12:14:22;;;;;;;3.40;3.10;;;18.10;77.00;;;;;;6026065;23;20440;-72
2023/04/15 12:16:52;;;;;;;3.70;3.40;;;17.80;77.00;;;;;;6022455;23;20455;-69
2023/04/15 12:19:24;;;;;;;4.10;3.80;;;17.30;78.90;;;;;;6028431;23;20905;-69
2023/04/15 12:21:53;;;;;;;4.80;3.80;;;16.40;87.40;;;;;;6024044;23;20478;-70
2023/04/15 12:24:22;;;;;;;4.43;4.00;;;15.60;91.60;;;;;;6023362;23;20504;-69
2023/04/15 12:26:52;;;;;;;4.30;3.90;;;15.10;94.70;;;;;;6028933;23;20466;-71
2023/04/15 12:29:21;;;;;;;4.70;4.20;;;14.00;95.90;;;;;;6041885;23;20447;-69
2023/04/15 12:31:52;;;;;;;4.90;3.80;;;13.40;97.90;;;;;;6025695;23;20463;-70
2023/04/15 12:34:28;;;;;;;4.18;3.33;;;12.90;99.20;;;;;;6031842;23;20433;-72
2023/04/15 12:36:56;;;;;;;3.85;3.20;;;12.50;99.90;;;;;;6038981;23;20277;-69
2023/04/15 12:39:24;;;;;;;2.30;2.10;;;12.20;99.90;;;;;;6029960;23;20185;-69
2023/04/15 12:41:53;;;;;;;2.30;2.10;;;12.10;99.90;;;;;;6035155;23;20197;-69
2023/04/15 12:44:22;;;;;;;2.40;2.20;;;12.10;99.90;;;;;;6024983;23;20194;-68
2023/04/15 12:46:50;;;;;;;2.43;2.20;;;12.30;99.90;;;;;;6035621;23;20460;-68
2023/04/15 12:49:19;;;;;;;2.13;1.93;;;12.50;99.90;;;;;;6040304;23;20440;-68
2023/04/15 12:51:46;;;;;;;2.77;2.30;;;12.80;99.90;;;;;;6027665;23;20472;-68
2023/04/15 12:54:14;;;;;;;3.50;2.47;;;13.00;99.90;;;;;;6042275;23;20464;-67
2023/04/15 12:56:41;;;;;;;3.00;2.50;;;13.20;99.90;;;;;;6036415;23;20454;-68